createdAt,value
2022-07-31T00:02:10.627Z,92.40
2022-07-31T00:04:39.220Z,92.60
2022-07-31T00:07:07.727Z,92.90
2022-07-31T00:09:54.105Z,92.90
2022-07-31T00:12:24.735Z,93.10
2022-07-31T00:14:53.226Z,93.10
2022-07-31T00:17:21.655Z,93.50
2022-07-31T00:19:50.133Z,93.70
2022-07-31T00:22:18.629Z,93.60
2022-07-31T00:24:47.329Z,93.20
2022-07-31T00:27:15.815Z,92.90
2022-07-31T00:29:45.738Z,92.80
2022-07-31T00:32:14.352Z,93.00
2022-07-31T00:34:43.851Z,93.10
2022-07-31T00:37:12.393Z,93.60
2022-07-31T00:39:40.900Z,94.80
2022-07-31T00:42:18.874Z,95.30
2022-07-31T00:44:49.705Z,95.90
2022-07-31T00:47:23.786Z,96.20
2022-07-31T00:49:54.467Z,96.50
2022-07-31T00:52:23.531Z,96.30
2022-07-31T00:54:52.235Z,96.90
2022-07-31T00:57:21.248Z,97.40
2022-07-31T00:59:51.799Z,97.70
2022-07-31T01:02:20.437Z,97.70
2022-07-31T01:04:49.253Z,97.90
2022-07-31T01:07:18.244Z,98.30
2022-07-31T01:09:49.217Z,98.60
2022-07-31T01:12:26.836Z,98.90
2022-07-31T01:15:05.167Z,99.20
2022-07-31T01:17:36.206Z,99.50
2022-07-31T01:20:06.279Z,99.70
2022-07-31T01:23:06.964Z,99.90
2022-07-31T01:25:52.641Z,99.90
2022-07-31T01:28:58.251Z,99.90
2022-07-31T01:31:36.232Z,99.90
2022-07-31T01:34:11.009Z,99.90
2022-07-31T01:36:50.094Z,99.90
2022-07-31T01:39:20.588Z,99.90
2022-07-31T01:41:51.387Z,99.60
2022-07-31T01:44:25.831Z,99.80
2022-07-31T01:46:57.058Z,99.40
2022-07-31T01:49:28.217Z,99.10
2022-07-31T01:52:02.781Z,99.10
2022-07-31T01:54:35.559Z,98.30
2022-07-31T01:57:05.820Z,98.00
2022-07-31T01:59:42.596Z,98.40
2022-07-31T02:02:23.317Z,98.60
2022-07-31T02:04:53.646Z,98.60
2022-07-31T02:07:47.461Z,98.70
2022-07-31T02:10:18.145Z,98.60
2022-07-31T02:12:48.687Z,98.90
2022-07-31T02:15:20.302Z,98.80
2022-07-31T02:17:52.818Z,99.20
2022-07-31T02:20:25.477Z,99.20
2022-07-31T02:22:59.319Z,99.60
2022-07-31T02:25:29.039Z,99.50
2022-07-31T02:27:59.859Z,98.50
2022-07-31T02:30:38.553Z,98.20
2022-07-31T02:33:15.555Z,98.10
2022-07-31T02:35:46.630Z,98.00
2022-07-31T02:38:22.736Z,97.90
2022-07-31T02:40:58.105Z,97.70
2022-07-31T02:43:27.904Z,97.80
2022-07-31T02:46:00.210Z,97.80
2022-07-31T02:48:29.748Z,97.60
2022-07-31T02:51:03.744Z,97.40
2022-07-31T02:53:33.849Z,97.00
2022-07-31T02:56:05.405Z,97.00
2022-07-31T02:58:41.991Z,96.60
2022-07-31T03:01:17.771Z,96.30
2022-07-31T03:03:46.574Z,95.70
2022-07-31T03:06:15.253Z,95.60
2022-07-31T03:08:44.629Z,95.50
2022-07-31T03:11:18.936Z,94.70
2022-07-31T03:13:49.180Z,94.00
2022-07-31T03:16:20.060Z,93.50
2022-07-31T03:18:49.305Z,93.70
2022-07-31T03:21:19.334Z,93.60
2022-07-31T03:23:48.314Z,93.30
2022-07-31T03:26:21.934Z,93.40
2022-07-31T03:28:50.716Z,92.90
2022-07-31T03:31:20.784Z,92.60
2022-07-31T03:33:49.776Z,92.20
2022-07-31T03:36:18.932Z,92.10
2022-07-31T03:38:50.420Z,92.00
2022-07-31T03:41:31.546Z,91.90
2022-07-31T03:44:00.435Z,92.10
2022-07-31T03:46:31.044Z,92.00
2022-07-31T03:49:01.955Z,92.00
2022-07-31T03:51:31.218Z,92.20
2022-07-31T03:54:01.490Z,92.00
2022-07-31T03:56:48.560Z,92.20
2022-07-31T03:59:19.551Z,92.30
2022-07-31T04:01:57.622Z,92.20
2022-07-31T04:04:53.612Z,91.70
2022-07-31T04:07:22.311Z,91.30
2022-07-31T04:09:51.562Z,91.00
2022-07-31T04:12:21.641Z,90.70
2022-07-31T04:14:50.580Z,90.60
2022-07-31T04:17:21.909Z,90.40
2022-07-31T04:19:50.594Z,90.30
2022-07-31T04:22:19.169Z,90.20
2022-07-31T04:24:48.294Z,90.30
2022-07-31T04:27:49.044Z,90.10
2022-07-31T04:30:19.234Z,90.00
2022-07-31T04:32:50.415Z,89.90
2022-07-31T04:35:23.818Z,89.80
2022-07-31T04:37:52.333Z,89.60
2022-07-31T04:40:23.217Z,89.70
2022-07-31T04:42:51.663Z,89.60
2022-07-31T04:45:20.450Z,89.30
2022-07-31T04:47:50.591Z,89.40
2022-07-31T04:50:19.179Z,89.40
2022-07-31T04:52:57.456Z,89.50
2022-07-31T04:55:27.860Z,89.50
2022-07-31T04:57:56.399Z,89.60
2022-07-31T05:00:25.096Z,89.70
2022-07-31T05:02:55.247Z,89.70
2022-07-31T05:05:25.184Z,89.90
2022-07-31T05:07:54.190Z,90.00
2022-07-31T05:10:44.972Z,89.90
2022-07-31T05:13:16.028Z,90.00
2022-07-31T05:15:45.290Z,90.10
2022-07-31T05:18:15.253Z,90.00
2022-07-31T05:20:50.374Z,90.20
2022-07-31T05:23:33.625Z,90.10
2022-07-31T05:26:25.614Z,90.10
2022-07-31T05:28:58.524Z,89.90
2022-07-31T05:31:29.085Z,89.80
2022-07-31T05:34:00.525Z,89.60
2022-07-31T05:36:29.459Z,89.60
2022-07-31T05:38:58.565Z,89.40
2022-07-31T05:41:27.688Z,89.50
2022-07-31T05:44:19.379Z,89.50
2022-07-31T05:49:20.061Z,89.20
2022-07-31T05:51:54.603Z,89.20
2022-07-31T05:54:26.353Z,89.50
2022-07-31T05:57:13.370Z,89.40
2022-07-31T06:00:02.040Z,89.30
2022-07-31T06:02:40.681Z,89.50
2022-07-31T06:05:30.113Z,89.50
2022-07-31T06:07:59.510Z,88.90
2022-07-31T06:10:30.417Z,88.40
2022-07-31T06:12:59.046Z,88.20
2022-07-31T06:15:28.036Z,87.80
2022-07-31T06:17:56.722Z,88.00
2022-07-31T06:20:31.207Z,87.60
2022-07-31T06:23:00.359Z,87.20
2022-07-31T06:25:38.965Z,87.20
2022-07-31T06:28:10.508Z,87.20
2022-07-31T06:30:40.857Z,87.30
2022-07-31T06:33:09.530Z,87.20
2022-07-31T06:35:47.094Z,87.40
2022-07-31T06:38:50.795Z,87.20
2022-07-31T06:41:47.607Z,86.80
2022-07-31T06:44:46.397Z,87.00
2022-07-31T06:47:33.811Z,87.10
2022-07-31T06:50:06.994Z,86.50
2022-07-31T06:52:42.314Z,86.20
2022-07-31T06:55:12.041Z,86.50
2022-07-31T06:57:42.313Z,86.80
2022-07-31T07:00:20.327Z,87.00
2022-07-31T07:02:52.113Z,87.30
2022-07-31T07:05:21.734Z,87.80
2022-07-31T07:07:55.219Z,88.00
2022-07-31T07:10:23.795Z,89.40
2022-07-31T07:13:01.315Z,90.80
2022-07-31T07:15:34.364Z,92.70
2022-07-31T07:18:03.170Z,94.30
2022-07-31T07:20:37.691Z,94.70
2022-07-31T07:23:07.987Z,95.80
2022-07-31T07:25:40.948Z,96.60
2022-07-31T07:28:16.599Z,98.70
2022-07-31T07:30:59.895Z,99.90
2022-07-31T07:33:41.584Z,99.90
2022-07-31T07:36:23.396Z,99.90
2022-07-31T07:39:11.086Z,99.50
2022-07-31T07:41:41.928Z,99.90
2022-07-31T07:44:10.678Z,99.90
2022-07-31T07:46:39.514Z,99.40
2022-07-31T07:49:09.876Z,99.60
2022-07-31T07:52:01.507Z,98.10
2022-07-31T07:54:37.651Z,96.60
2022-07-31T07:57:06.366Z,95.60
2022-07-31T08:00:09.477Z,95.30
2022-07-31T08:03:02.654Z,94.90
2022-07-31T08:05:46.225Z,94.70
2022-07-31T08:08:15.658Z,93.90
2022-07-31T08:10:51.943Z,94.10
2022-07-31T08:13:41.043Z,93.10
2022-07-31T08:16:28.127Z,93.10
2022-07-31T08:19:02.150Z,93.30
2022-07-31T08:21:32.013Z,93.20
2022-07-31T08:24:00.567Z,92.40
2022-07-31T08:26:50.867Z,92.70
2022-07-31T08:29:28.854Z,92.60
2022-07-31T08:32:12.291Z,92.70
2022-07-31T08:35:00.900Z,93.50
2022-07-31T08:37:52.405Z,92.60
2022-07-31T08:40:22.469Z,92.70
2022-07-31T08:42:52.907Z,92.70
2022-07-31T08:45:22.754Z,92.60
2022-07-31T08:48:16.022Z,92.00
2022-07-31T08:50:53.670Z,91.00
2022-07-31T08:53:44.843Z,90.90
2022-07-31T08:56:18.879Z,90.80
2022-07-31T08:58:49.132Z,91.10
2022-07-31T09:01:18.094Z,90.90
2022-07-31T09:03:47.438Z,91.30
2022-07-31T09:06:17.385Z,90.10
2022-07-31T09:08:56.740Z,89.50
2022-07-31T09:11:25.714Z,88.70
2022-07-31T09:14:11.714Z,88.50
2022-07-31T09:16:50.641Z,88.20
2022-07-31T09:19:53.972Z,88.30
2022-07-31T09:22:22.753Z,87.60
2022-07-31T09:24:52.438Z,87.60
2022-07-31T09:27:22.061Z,88.10
2022-07-31T09:29:53.020Z,88.30
2022-07-31T09:32:34.974Z,87.40
2022-07-31T09:35:26.914Z,87.90
2022-07-31T09:37:55.612Z,88.20
2022-07-31T09:41:56.566Z,87.60
2022-07-31T10:11:00.186Z,87.90
2022-07-31T10:13:50.993Z,85.90
2022-07-31T10:16:23.836Z,85.60
2022-07-31T10:19:15.439Z,84.80
2022-07-31T10:22:08.155Z,84.40
2022-07-31T10:24:45.555Z,84.20
2022-07-31T10:27:17.510Z,84.00
2022-07-31T10:29:49.220Z,83.90
2022-07-31T10:32:18.563Z,83.40
2022-07-31T10:35:07.829Z,83.00
2022-07-31T10:38:00.281Z,83.20
2022-07-31T10:41:04.498Z,83.40
2022-07-31T10:43:46.271Z,82.20
2022-07-31T10:46:30.121Z,81.10
2022-07-31T10:49:17.343Z,80.10
2022-07-31T10:52:29.144Z,79.70
2022-07-31T10:55:23.095Z,79.80
2022-07-31T10:58:14.056Z,78.90
2022-07-31T11:01:17.404Z,79.00
2022-07-31T11:04:09.514Z,78.30
2022-07-31T11:06:52.645Z,79.70
2022-07-31T11:09:54.094Z,81.00
2022-07-31T11:13:01.943Z,81.10
2022-07-31T11:16:05.185Z,81.30
2022-07-31T11:18:59.010Z,82.80
2022-07-31T11:21:38.894Z,82.70
2022-07-31T11:24:16.163Z,83.80
2022-07-31T11:26:51.301Z,83.70
2022-07-31T11:30:01.030Z,82.90
2022-07-31T11:32:24.805Z,83.90
2022-07-31T11:34:58.983Z,88.20
2022-07-31T11:37:30.755Z,86.20
2022-07-31T11:40:18.826Z,84.60
2022-07-31T11:43:10.446Z,83.00
2022-07-31T11:45:51.384Z,82.30
2022-07-31T11:48:22.192Z,81.70
2022-07-31T11:50:54.598Z,81.00
2022-07-31T11:53:25.122Z,78.80
2022-07-31T11:55:57.224Z,77.70
2022-07-31T11:58:27.647Z,77.80
2022-07-31T12:00:58.785Z,78.10
2022-07-31T12:03:34.916Z,78.20
2022-07-31T12:06:06.179Z,77.20
2022-07-31T12:08:36.106Z,76.50
2022-07-31T12:11:08.030Z,75.00
2022-07-31T12:13:38.458Z,74.90
2022-07-31T12:16:09.467Z,75.60
2022-07-31T12:18:49.045Z,74.80
2022-07-31T12:21:20.875Z,74.50
2022-07-31T12:23:51.287Z,74.00
2022-07-31T12:26:25.815Z,73.00
2022-07-31T12:29:02.065Z,73.50
2022-07-31T12:31:32.617Z,73.40
2022-07-31T12:34:01.133Z,74.50
2022-07-31T12:36:31.589Z,76.20
2022-07-31T12:39:02.439Z,76.70
2022-07-31T12:41:31.983Z,77.60
2022-07-31T12:44:14.371Z,77.70
2022-07-31T12:46:43.590Z,78.80
2022-07-31T12:49:12.657Z,78.70
2022-07-31T12:51:45.087Z,78.10
2022-07-31T12:54:17.321Z,78.60
2022-07-31T12:56:47.186Z,78.70
2022-07-31T12:59:16.074Z,78.30
2022-07-31T13:01:45.202Z,78.30
2022-07-31T13:04:18.209Z,77.60
2022-07-31T13:07:00.693Z,77.70
2022-07-31T13:09:29.826Z,77.90
2022-07-31T13:11:58.695Z,78.90
2022-07-31T13:14:28.486Z,79.30
2022-07-31T13:17:00.099Z,80.40
2022-07-31T13:19:28.888Z,80.00
2022-07-31T13:21:59.410Z,80.10
2022-07-31T13:24:28.679Z,80.30
2022-07-31T13:26:58.950Z,79.90
2022-07-31T13:29:36.126Z,79.40
2022-07-31T13:32:04.955Z,78.80
2022-07-31T13:34:34.435Z,77.60
2022-07-31T13:37:05.525Z,77.20
2022-07-31T13:39:34.778Z,76.80
2022-07-31T13:42:04.060Z,76.80
2022-07-31T13:44:33.435Z,76.10
2022-07-31T13:47:03.843Z,76.20
2022-07-31T13:49:34.148Z,75.00
2022-07-31T13:52:04.876Z,74.50
2022-07-31T13:54:37.349Z,75.10
2022-07-31T13:57:08.271Z,76.40
2022-07-31T13:59:37.078Z,76.60
2022-07-31T14:02:06.371Z,76.30
2022-07-31T14:04:38.730Z,76.70
2022-07-31T14:07:13.000Z,77.20
2022-07-31T14:09:55.226Z,77.30
2022-07-31T14:12:27.668Z,77.90
2022-07-31T14:15:04.898Z,78.40
2022-07-31T14:17:48.229Z,79.40
2022-07-31T14:20:22.188Z,80.70
2022-07-31T14:22:58.067Z,80.40
2022-07-31T14:25:53.140Z,79.40
2022-07-31T14:28:25.094Z,77.60
2022-07-31T14:31:00.152Z,76.20
2022-07-31T14:33:33.026Z,74.80
2022-07-31T14:36:04.248Z,73.90
2022-07-31T14:38:35.060Z,72.10
2022-07-31T14:41:04.778Z,70.60
2022-07-31T14:43:33.853Z,70.40
2022-07-31T14:46:05.593Z,71.20
2022-07-31T14:48:36.545Z,72.80
2022-07-31T14:51:24.264Z,73.30
2022-07-31T14:53:59.797Z,74.30
2022-07-31T14:57:00.663Z,74.20
2022-07-31T14:59:20.499Z,72.10
2022-07-31T15:01:49.530Z,71.20
2022-07-31T15:04:18.690Z,72.10
2022-07-31T15:06:56.313Z,73.40
2022-07-31T15:09:34.375Z,74.10
2022-07-31T15:12:03.740Z,74.80
2022-07-31T15:14:32.589Z,75.90
2022-07-31T15:17:16.175Z,76.80
2022-07-31T15:19:49.033Z,89.10
2022-07-31T15:22:26.794Z,99.90
2022-07-31T15:24:57.770Z,99.90
2022-07-31T15:28:31.962Z,99.90
2022-07-31T15:32:45.317Z,99.90
2022-07-31T15:38:42.613Z,99.90
2022-07-31T15:41:43.595Z,96.10
2022-07-31T15:48:51.821Z,87.00
2022-07-31T15:51:04.496Z,87.40
2022-07-31T15:53:46.654Z,85.70
2022-07-31T15:57:03.529Z,85.30
2022-07-31T16:14:56.364Z,86.60
2022-07-31T16:18:28.926Z,86.20
2022-07-31T16:26:49.699Z,87.10
2022-07-31T16:29:59.671Z,87.00
2022-07-31T16:32:43.437Z,87.10
2022-07-31T16:43:49.365Z,87.40
2022-07-31T16:45:38.963Z,88.10
2022-07-31T16:48:40.617Z,87.60
2022-07-31T16:51:14.561Z,88.00
2022-07-31T16:54:14.599Z,87.50
2022-07-31T16:56:46.752Z,87.80
2022-07-31T17:04:00.548Z,88.00
2022-07-31T17:14:54.207Z,99.90
2022-07-31T17:31:03.920Z,99.90
2022-07-31T17:34:19.314Z,99.90
2022-07-31T17:37:47.705Z,99.90
2022-07-31T17:40:44.574Z,99.90
2022-07-31T17:43:53.782Z,99.90
2022-07-31T17:46:21.974Z,99.90
2022-07-31T17:48:59.076Z,99.90
2022-07-31T17:51:30.186Z,99.90
2022-07-31T17:53:59.862Z,99.90
2022-07-31T17:56:29.649Z,99.90
2022-07-31T17:59:04.730Z,99.90
2022-07-31T18:01:35.155Z,99.90
2022-07-31T18:04:04.774Z,99.90
2022-07-31T18:06:38.830Z,99.90
2022-07-31T18:09:09.302Z,99.90
2022-07-31T18:11:38.262Z,99.90
2022-07-31T18:14:08.592Z,99.90
2022-07-31T18:16:40.250Z,99.90
2022-07-31T18:19:17.650Z,99.90
2022-07-31T18:21:51.918Z,99.90
2022-07-31T18:24:26.880Z,99.90
2022-07-31T18:26:56.084Z,99.90
2022-07-31T18:30:22.633Z,99.90
2022-07-31T18:33:42.456Z,99.90
2022-07-31T18:36:55.223Z,99.90
2022-07-31T18:52:57.344Z,99.90
2022-07-31T18:55:27.600Z,99.90
2022-07-31T18:57:59.111Z,99.90
2022-07-31T19:00:28.419Z,99.90
2022-07-31T19:06:21.079Z,99.90
2022-07-31T19:08:52.170Z,99.90
2022-07-31T19:24:32.333Z,99.90
2022-07-31T19:26:35.501Z,99.90
2022-07-31T19:48:14.954Z,99.90
2022-07-31T19:52:07.752Z,99.90
2022-07-31T19:54:22.024Z,99.90
2022-07-31T19:56:50.920Z,99.90
2022-07-31T19:59:20.029Z,99.90
2022-07-31T20:01:48.753Z,99.90
2022-07-31T20:04:23.727Z,99.90
2022-07-31T20:07:40.021Z,99.90
2022-07-31T20:10:14.139Z,99.90
2022-07-31T20:12:45.460Z,99.90
2022-07-31T20:15:50.650Z,99.90
2022-07-31T20:20:04.659Z,99.90
2022-07-31T20:23:04.708Z,99.90
2022-07-31T20:26:03.944Z,99.90
2022-07-31T20:29:33.666Z,99.90
2022-07-31T20:33:11.143Z,99.90
2022-07-31T20:37:23.743Z,99.90
2022-07-31T20:39:40.317Z,99.90
2022-07-31T20:42:26.290Z,99.90
2022-07-31T20:46:06.999Z,99.90
2022-07-31T20:54:51.526Z,99.90
2022-07-31T20:57:49.037Z,99.90
2022-07-31T21:02:26.855Z,99.90
2022-07-31T21:03:43.449Z,99.90
2022-07-31T21:06:12.340Z,99.90
2022-07-31T21:08:41.997Z,99.90
2022-07-31T21:11:12.358Z,99.90
2022-07-31T21:13:42.150Z,99.90
2022-07-31T21:16:11.514Z,99.90
2022-07-31T21:18:43.391Z,99.90
2022-07-31T21:21:12.701Z,99.90
2022-07-31T21:23:41.342Z,99.90
2022-07-31T21:26:11.645Z,99.90
2022-07-31T21:28:40.986Z,99.90
2022-07-31T21:31:11.516Z,99.90
2022-07-31T21:33:40.854Z,99.90
2022-07-31T21:36:10.705Z,99.90
2022-07-31T21:38:40.664Z,99.90
2022-07-31T21:41:10.170Z,99.90
2022-07-31T21:43:59.564Z,99.90
2022-07-31T21:46:30.153Z,99.90
2022-07-31T21:48:59.742Z,99.90
2022-07-31T21:51:28.803Z,99.90
2022-07-31T21:53:57.591Z,99.90
2022-07-31T21:56:27.553Z,99.90
2022-07-31T21:58:57.855Z,99.90
2022-07-31T22:01:29.603Z,99.90
2022-07-31T22:03:58.423Z,99.90
2022-07-31T22:06:44.473Z,99.90
2022-07-31T22:09:13.044Z,99.90
2022-07-31T22:11:54.977Z,99.90
2022-07-31T22:14:35.458Z,99.90
2022-07-31T22:17:03.966Z,99.90
2022-07-31T22:19:33.880Z,99.90
2022-07-31T22:22:03.721Z,99.90
2022-07-31T22:24:32.907Z,99.90
2022-07-31T22:27:19.540Z,99.90
2022-07-31T22:29:51.358Z,99.90
2022-07-31T22:32:20.139Z,99.90
2022-07-31T22:34:48.958Z,99.90
2022-07-31T22:37:17.970Z,99.90
2022-07-31T22:39:48.046Z,99.90
2022-07-31T22:42:16.615Z,99.90
2022-07-31T22:44:46.150Z,99.90
2022-07-31T22:47:18.461Z,99.90
2022-07-31T22:49:47.613Z,99.90
2022-07-31T22:52:16.476Z,99.90
2022-07-31T22:54:47.062Z,99.90
2022-07-31T22:57:16.772Z,99.90
2022-07-31T22:59:46.371Z,99.90
2022-07-31T23:02:17.564Z,99.90
2022-07-31T23:04:46.967Z,99.90
2022-07-31T23:07:15.640Z,99.90
2022-07-31T23:09:44.514Z,99.90
2022-07-31T23:12:13.192Z,99.90
2022-07-31T23:14:41.907Z,99.90
2022-07-31T23:17:10.626Z,99.90
2022-07-31T23:19:54.730Z,99.90
2022-07-31T23:22:30.821Z,99.90
2022-07-31T23:25:03.643Z,99.90
2022-07-31T23:27:32.266Z,99.90
2022-07-31T23:30:01.865Z,99.90
2022-07-31T23:32:30.651Z,99.90
2022-07-31T23:35:01.012Z,99.90
2022-07-31T23:37:29.813Z,99.90
2022-07-31T23:39:58.745Z,99.90
2022-07-31T23:42:39.672Z,99.90
2022-07-31T23:45:11.232Z,99.90
2022-07-31T23:47:45.183Z,99.90
2022-07-31T23:50:17.038Z,99.90
2022-07-31T23:52:46.337Z,99.90
2022-07-31T23:55:15.478Z,99.90
2022-07-31T23:57:44.272Z,99.90
